sensor_id;sensor_type;location;lat;lon;timestamp;P1;durP1;ratioP1;P2;durP2;ratioP2
815;SDS011;25928;51.062;13.752;2022-09-29T00:02:12;5.60;;;4.90;;
815;SDS011;25928;51.062;13.752;2022-09-29T00:04:38;5.57;;;4.03;;
815;SDS011;25928;51.062;13.752;2022-09-29T00:07:03;4.93;;;4.43;;
815;SDS011;25928;51.062;13.752;2022-09-29T00:09:29;4.17;;;3.77;;
815;SDS011;25928;51.062;13.752;2022-09-29T00:11:55;5.43;;;4.50;;
815;SDS011;25928;51.062;13.752;2022-09-29T00:14:21;4.83;;;4.20;;
815;SDS011;25928;51.062;13.752;2022-09-29T00:16:47;7.00;;;4.80;;
815;SDS011;25928;51.062;13.752;2022-09-29T00:19:13;4.60;;;4.20;;
815;SDS011;25928;51.062;13.752;2022-09-29T00:21:39;6.10;;;4.53;;
815;SDS011;25928;51.062;13.752;2022-09-29T00:24:05;6.07;;;5.30;;
815;SDS011;25928;51.062;13.752;2022-09-29T00:26:30;5.70;;;4.97;;
815;SDS011;25928;51.062;13.752;2022-09-29T00:28:56;5.43;;;4.60;;
815;SDS011;25928;51.062;13.752;2022-09-29T00:31:30;4.40;;;3.90;;
815;SDS011;25928;51.062;13.752;2022-09-29T00:33:57;4.40;;;4.00;;
815;SDS011;25928;51.062;13.752;2022-09-29T00:36:23;4.00;;;3.70;;
815;SDS011;25928;51.062;13.752;2022-09-29T00:38:49;4.73;;;4.33;;
815;SDS011;25928;51.062;13.752;2022-09-29T00:41:19;4.47;;;4.07;;
815;SDS011;25928;51.062;13.752;2022-09-29T00:43:52;4.70;;;4.30;;
815;SDS011;25928;51.062;13.752;2022-09-29T00:49:13;4.53;;;4.13;;
815;SDS011;25928;51.062;13.752;2022-09-29T00:51:58;4.03;;;3.70;;
815;SDS011;25928;51.062;13.752;2022-09-29T00:54:31;4.57;;;4.17;;
815;SDS011;25928;51.062;13.752;2022-09-29T00:57:04;4.13;;;3.73;;
815;SDS011;25928;51.062;13.752;2022-09-29T00:59:35;5.70;;;4.63;;
815;SDS011;25928;51.062;13.752;2022-09-29T01:02:10;6.60;;;4.67;;
815;SDS011;25928;51.062;13.752;2022-09-29T01:04:37;4.20;;;3.80;;
815;SDS011;25928;51.062;13.752;2022-09-29T01:07:03;4.20;;;3.83;;
815;SDS011;25928;51.062;13.752;2022-09-29T01:09:30;5.00;;;4.43;;
815;SDS011;25928;51.062;13.752;2022-09-29T01:11:59;7.20;;;4.30;;
815;SDS011;25928;51.062;13.752;2022-09-29T01:14:26;4.63;;;4.10;;
815;SDS011;25928;51.062;13.752;2022-09-29T01:16:53;4.47;;;4.03;;
815;SDS011;25928;51.062;13.752;2022-09-29T01:19:24;4.23;;;3.83;;
815;SDS011;25928;51.062;13.752;2022-09-29T01:27:18;4.30;;;3.90;;
815;SDS011;25928;51.062;13.752;2022-09-29T01:30:06;6.80;;;3.80;;
815;SDS011;25928;51.062;13.752;2022-09-29T01:43:47;4.20;;;3.80;;
815;SDS011;25928;51.062;13.752;2022-09-29T01:46:30;9.30;;;4.90;;
815;SDS011;25928;51.062;13.752;2022-09-29T01:49:01;5.20;;;4.10;;
815;SDS011;25928;51.062;13.752;2022-09-29T01:51:34;3.70;;;3.27;;
815;SDS011;25928;51.062;13.752;2022-09-29T01:54:07;4.87;;;3.43;;
815;SDS011;25928;51.062;13.752;2022-09-29T01:56:49;6.43;;;3.70;;
815;SDS011;25928;51.062;13.752;2022-09-29T01:59:36;4.60;;;3.93;;
815;SDS011;25928;51.062;13.752;2022-09-29T02:02:10;4.20;;;3.80;;
815;SDS011;25928;51.062;13.752;2022-09-29T02:04:40;3.03;;;2.83;;
815;SDS011;25928;51.062;13.752;2022-09-29T02:07:24;3.23;;;2.93;;
815;SDS011;25928;51.062;13.752;2022-09-29T02:10:01;3.17;;;2.97;;
815;SDS011;25928;51.062;13.752;2022-09-29T02:12:33;3.73;;;3.37;;
815;SDS011;25928;51.062;13.752;2022-09-29T02:15:02;4.67;;;4.17;;
815;SDS011;25928;51.062;13.752;2022-09-29T02:17:35;4.63;;;4.00;;
815;SDS011;25928;51.062;13.752;2022-09-29T02:20:03;3.53;;;3.20;;
815;SDS011;25928;51.062;13.752;2022-09-29T02:22:29;4.40;;;3.30;;
815;SDS011;25928;51.062;13.752;2022-09-29T02:24:56;3.43;;;3.13;;
815;SDS011;25928;51.062;13.752;2022-09-29T02:27:24;4.60;;;3.37;;
815;SDS011;25928;51.062;13.752;2022-09-29T02:29:52;3.77;;;3.43;;
815;SDS011;25928;51.062;13.752;2022-09-29T02:32:19;4.47;;;3.50;;
815;SDS011;25928;51.062;13.752;2022-09-29T02:34:45;5.70;;;3.70;;
815;SDS011;25928;51.062;13.752;2022-09-29T02:42:15;3.63;;;3.33;;
815;SDS011;25928;51.062;13.752;2022-09-29T02:44:51;3.30;;;3.00;;
815;SDS011;25928;51.062;13.752;2022-09-29T02:50:25;6.37;;;4.23;;
815;SDS011;25928;51.062;13.752;2022-09-29T02:55:32;3.13;;;2.93;;
815;SDS011;25928;51.062;13.752;2022-09-29T02:58:17;4.10;;;3.50;;
815;SDS011;25928;51.062;13.752;2022-09-29T03:00:49;4.27;;;3.87;;
815;SDS011;25928;51.062;13.752;2022-09-29T03:03:17;3.70;;;3.40;;
815;SDS011;25928;51.062;13.752;2022-09-29T03:05:42;4.43;;;3.70;;
815;SDS011;25928;51.062;13.752;2022-09-29T03:08:08;4.37;;;3.70;;
815;SDS011;25928;51.062;13.752;2022-09-29T03:10:33;3.33;;;2.80;;
815;SDS011;25928;51.062;13.752;2022-09-29T03:12:59;5.13;;;3.83;;
815;SDS011;25928;51.062;13.752;2022-09-29T03:15:24;3.63;;;3.33;;
815;SDS011;25928;51.062;13.752;2022-09-29T03:17:53;3.37;;;2.93;;
815;SDS011;25928;51.062;13.752;2022-09-29T03:20:20;3.80;;;3.40;;
815;SDS011;25928;51.062;13.752;2022-09-29T03:22:46;4.07;;;3.30;;
815;SDS011;25928;51.062;13.752;2022-09-29T03:25:11;3.10;;;2.80;;
815;SDS011;25928;51.062;13.752;2022-09-29T03:27:38;3.87;;;3.50;;
815;SDS011;25928;51.062;13.752;2022-09-29T03:30:04;3.73;;;3.33;;
815;SDS011;25928;51.062;13.752;2022-09-29T03:32:30;4.03;;;3.63;;
815;SDS011;25928;51.062;13.752;2022-09-29T03:34:56;4.80;;;3.57;;
815;SDS011;25928;51.062;13.752;2022-09-29T03:37:21;3.77;;;3.47;;
815;SDS011;25928;51.062;13.752;2022-09-29T03:39:47;3.70;;;3.40;;
815;SDS011;25928;51.062;13.752;2022-09-29T03:42:13;3.83;;;3.53;;
815;SDS011;25928;51.062;13.752;2022-09-29T03:44:38;4.87;;;3.93;;
815;SDS011;25928;51.062;13.752;2022-09-29T03:47:04;4.60;;;3.10;;
815;SDS011;25928;51.062;13.752;2022-09-29T03:49:30;3.83;;;3.43;;
815;SDS011;25928;51.062;13.752;2022-09-29T03:51:55;5.07;;;3.50;;
815;SDS011;25928;51.062;13.752;2022-09-29T03:54:21;3.73;;;3.27;;
815;SDS011;25928;51.062;13.752;2022-09-29T03:56:48;3.20;;;2.90;;
815;SDS011;25928;51.062;13.752;2022-09-29T03:59:14;3.83;;;3.47;;
815;SDS011;25928;51.062;13.752;2022-09-29T04:01:40;3.27;;;3.00;;
815;SDS011;25928;51.062;13.752;2022-09-29T04:04:05;4.60;;;4.10;;
815;SDS011;25928;51.062;13.752;2022-09-29T04:06:32;5.60;;;3.00;;
815;SDS011;25928;51.062;13.752;2022-09-29T04:09:00;3.90;;;3.50;;
815;SDS011;25928;51.062;13.752;2022-09-29T04:11:26;3.60;;;3.30;;
815;SDS011;25928;51.062;13.752;2022-09-29T04:13:51;4.13;;;3.23;;
815;SDS011;25928;51.062;13.752;2022-09-29T04:16:17;4.50;;;3.80;;
815;SDS011;25928;51.062;13.752;2022-09-29T04:18:43;5.50;;;4.17;;
815;SDS011;25928;51.062;13.752;2022-09-29T04:21:08;4.50;;;3.97;;
815;SDS011;25928;51.062;13.752;2022-09-29T04:23:34;4.60;;;3.63;;
815;SDS011;25928;51.062;13.752;2022-09-29T04:26:02;3.10;;;2.80;;
815;SDS011;25928;51.062;13.752;2022-09-29T04:28:29;5.23;;;3.70;;
815;SDS011;25928;51.062;13.752;2022-09-29T04:30:56;4.87;;;4.37;;
815;SDS011;25928;51.062;13.752;2022-09-29T04:33:21;4.13;;;3.73;;
815;SDS011;25928;51.062;13.752;2022-09-29T04:35:47;4.10;;;3.50;;
815;SDS011;25928;51.062;13.752;2022-09-29T04:38:12;5.20;;;4.30;;
815;SDS011;25928;51.062;13.752;2022-09-29T04:40:38;4.13;;;3.50;;
815;SDS011;25928;51.062;13.752;2022-09-29T04:43:04;4.80;;;4.30;;
815;SDS011;25928;51.062;13.752;2022-09-29T04:45:30;4.63;;;4.23;;
815;SDS011;25928;51.062;13.752;2022-09-29T04:47:56;4.27;;;3.87;;
815;SDS011;25928;51.062;13.752;2022-09-29T04:50:21;4.63;;;4.03;;
815;SDS011;25928;51.062;13.752;2022-09-29T04:52:47;4.80;;;4.17;;
815;SDS011;25928;51.062;13.752;2022-09-29T04:55:13;4.03;;;3.70;;
815;SDS011;25928;51.062;13.752;2022-09-29T04:57:40;5.53;;;4.23;;
815;SDS011;25928;51.062;13.752;2022-09-29T05:00:07;4.30;;;3.60;;
815;SDS011;25928;51.062;13.752;2022-09-29T05:02:34;4.17;;;3.77;;
815;SDS011;25928;51.062;13.752;2022-09-29T05:05:00;6.77;;;3.50;;
815;SDS011;25928;51.062;13.752;2022-09-29T05:07:26;5.97;;;4.90;;
815;SDS011;25928;51.062;13.752;2022-09-29T05:09:52;6.33;;;4.47;;
815;SDS011;25928;51.062;13.752;2022-09-29T05:12:18;4.60;;;4.07;;
815;SDS011;25928;51.062;13.752;2022-09-29T05:14:44;6.93;;;3.93;;
815;SDS011;25928;51.062;13.752;2022-09-29T05:17:10;4.90;;;4.07;;
815;SDS011;25928;51.062;13.752;2022-09-29T05:19:36;5.23;;;4.00;;
815;SDS011;25928;51.062;13.752;2022-09-29T05:22:02;4.67;;;3.83;;
815;SDS011;25928;51.062;13.752;2022-09-29T05:24:27;6.47;;;4.73;;
815;SDS011;25928;51.062;13.752;2022-09-29T05:26:53;5.37;;;4.20;;
815;SDS011;25928;51.062;13.752;2022-09-29T05:29:19;6.37;;;5.37;;
815;SDS011;25928;51.062;13.752;2022-09-29T05:31:44;9.70;;;4.87;;
815;SDS011;25928;51.062;13.752;2022-09-29T05:34:10;4.10;;;3.70;;
815;SDS011;25928;51.062;13.752;2022-09-29T05:36:35;5.20;;;3.73;;
815;SDS011;25928;51.062;13.752;2022-09-29T05:39:01;6.30;;;4.70;;
815;SDS011;25928;51.062;13.752;2022-09-29T05:41:27;6.23;;;4.60;;
815;SDS011;25928;51.062;13.752;2022-09-29T05:43:53;5.17;;;4.20;;
815;SDS011;25928;51.062;13.752;2022-09-29T05:46:19;5.47;;;4.30;;
815;SDS011;25928;51.062;13.752;2022-09-29T05:48:46;4.80;;;4.30;;
815;SDS011;25928;51.062;13.752;2022-09-29T05:51:13;6.27;;;5.17;;
815;SDS011;25928;51.062;13.752;2022-09-29T05:53:41;6.57;;;5.23;;
815;SDS011;25928;51.062;13.752;2022-09-29T05:56:09;5.73;;;5.13;;
815;SDS011;25928;51.062;13.752;2022-09-29T05:58:36;11.23;;;5.17;;
815;SDS011;25928;51.062;13.752;2022-09-29T06:01:09;5.30;;;4.30;;
815;SDS011;25928;51.062;13.752;2022-09-29T06:03:36;5.57;;;4.70;;
815;SDS011;25928;51.062;13.752;2022-09-29T06:06:09;7.50;;;5.27;;
815;SDS011;25928;51.062;13.752;2022-09-29T06:08:37;6.10;;;4.77;;
815;SDS011;25928;51.062;13.752;2022-09-29T06:11:07;5.37;;;4.70;;
815;SDS011;25928;51.062;13.752;2022-09-29T06:13:37;6.00;;;5.23;;
815;SDS011;25928;51.062;13.752;2022-09-29T06:16:03;6.63;;;4.80;;
815;SDS011;25928;51.062;13.752;2022-09-29T06:18:29;7.33;;;5.40;;
815;SDS011;25928;51.062;13.752;2022-09-29T06:20:58;6.53;;;5.20;;
815;SDS011;25928;51.062;13.752;2022-09-29T06:23:25;6.70;;;5.30;;
815;SDS011;25928;51.062;13.752;2022-09-29T06:25:54;6.10;;;5.10;;
815;SDS011;25928;51.062;13.752;2022-09-29T06:28:20;10.47;;;4.97;;
815;SDS011;25928;51.062;13.752;2022-09-29T06:30:46;6.20;;;5.60;;
815;SDS011;25928;51.062;13.752;2022-09-29T06:33:11;6.67;;;6.00;;
815;SDS011;25928;51.062;13.752;2022-09-29T06:35:37;9.37;;;5.50;;
815;SDS011;25928;51.062;13.752;2022-09-29T06:38:21;9.57;;;6.97;;
815;SDS011;25928;51.062;13.752;2022-09-29T06:40:47;6.93;;;5.00;;
815;SDS011;25928;51.062;13.752;2022-09-29T06:43:12;5.57;;;4.90;;
815;SDS011;25928;51.062;13.752;2022-09-29T06:45:38;6.50;;;5.60;;
815;SDS011;25928;51.062;13.752;2022-09-29T06:48:04;5.50;;;4.90;;
815;SDS011;25928;51.062;13.752;2022-09-29T06:50:29;7.20;;;5.17;;
815;SDS011;25928;51.062;13.752;2022-09-29T06:52:55;8.23;;;5.40;;
815;SDS011;25928;51.062;13.752;2022-09-29T06:55:21;9.83;;;6.00;;
815;SDS011;25928;51.062;13.752;2022-09-29T06:57:46;6.20;;;5.10;;
815;SDS011;25928;51.062;13.752;2022-09-29T07:00:12;7.03;;;5.50;;
815;SDS011;25928;51.062;13.752;2022-09-29T07:02:38;6.07;;;5.43;;
815;SDS011;25928;51.062;13.752;2022-09-29T07:05:04;6.23;;;4.73;;
815;SDS011;25928;51.062;13.752;2022-09-29T07:07:30;7.80;;;6.10;;
815;SDS011;25928;51.062;13.752;2022-09-29T07:09:55;6.70;;;5.30;;
815;SDS011;25928;51.062;13.752;2022-09-29T07:12:21;8.90;;;6.87;;
815;SDS011;25928;51.062;13.752;2022-09-29T07:14:47;8.23;;;6.33;;
815;SDS011;25928;51.062;13.752;2022-09-29T07:17:12;7.43;;;5.30;;
815;SDS011;25928;51.062;13.752;2022-09-29T07:19:38;6.43;;;5.13;;
815;SDS011;25928;51.062;13.752;2022-09-29T07:22:04;7.93;;;5.60;;
815;SDS011;25928;51.062;13.752;2022-09-29T07:24:30;9.13;;;6.67;;
815;SDS011;25928;51.062;13.752;2022-09-29T07:26:56;5.80;;;5.03;;
815;SDS011;25928;51.062;13.752;2022-09-29T07:29:22;8.20;;;6.33;;
815;SDS011;25928;51.062;13.752;2022-09-29T07:31:47;6.90;;;5.30;;
815;SDS011;25928;51.062;13.752;2022-09-29T07:34:15;8.00;;;5.60;;
815;SDS011;25928;51.062;13.752;2022-09-29T07:36:41;7.47;;;5.90;;
815;SDS011;25928;51.062;13.752;2022-09-29T07:39:06;6.73;;;5.50;;
815;SDS011;25928;51.062;13.752;2022-09-29T07:41:32;8.73;;;6.67;;
815;SDS011;25928;51.062;13.752;2022-09-29T07:43:58;6.87;;;5.37;;
815;SDS011;25928;51.062;13.752;2022-09-29T07:46:23;5.73;;;5.13;;
815;SDS011;25928;51.062;13.752;2022-09-29T07:48:50;6.77;;;4.60;;
815;SDS011;25928;51.062;13.752;2022-09-29T07:51:16;6.43;;;5.47;;
815;SDS011;25928;51.062;13.752;2022-09-29T07:53:43;8.90;;;5.83;;
815;SDS011;25928;51.062;13.752;2022-09-29T07:56:20;7.70;;;6.37;;
815;SDS011;25928;51.062;13.752;2022-09-29T07:58:47;8.50;;;5.13;;
815;SDS011;25928;51.062;13.752;2022-09-29T08:01:14;5.70;;;5.10;;
815;SDS011;25928;51.062;13.752;2022-09-29T08:03:41;6.20;;;5.40;;
815;SDS011;25928;51.062;13.752;2022-09-29T08:06:11;5.30;;;4.80;;
815;SDS011;25928;51.062;13.752;2022-09-29T08:08:37;4.97;;;4.57;;
815;SDS011;25928;51.062;13.752;2022-09-29T08:11:04;5.80;;;5.20;;
815;SDS011;25928;51.062;13.752;2022-09-29T08:13:31;7.23;;;5.80;;
815;SDS011;25928;51.062;13.752;2022-09-29T08:15:58;5.43;;;4.93;;
815;SDS011;25928;51.062;13.752;2022-09-29T08:18:24;6.20;;;5.57;;
815;SDS011;25928;51.062;13.752;2022-09-29T08:20:51;6.40;;;5.30;;
815;SDS011;25928;51.062;13.752;2022-09-29T08:23:18;6.30;;;5.70;;
815;SDS011;25928;51.062;13.752;2022-09-29T08:25:44;6.27;;;5.67;;
815;SDS011;25928;51.062;13.752;2022-09-29T08:28:10;7.80;;;5.73;;
815;SDS011;25928;51.062;13.752;2022-09-29T08:30:35;5.63;;;5.03;;
815;SDS011;25928;51.062;13.752;2022-09-29T08:33:02;5.70;;;5.10;;
815;SDS011;25928;51.062;13.752;2022-09-29T08:35:31;6.20;;;5.43;;
815;SDS011;25928;51.062;13.752;2022-09-29T08:37:56;7.70;;;5.87;;
815;SDS011;25928;51.062;13.752;2022-09-29T08:40:22;7.00;;;6.30;;
815;SDS011;25928;51.062;13.752;2022-09-29T08:43:09;8.63;;;6.20;;
815;SDS011;25928;51.062;13.752;2022-09-29T08:45:43;6.60;;;5.80;;
815;SDS011;25928;51.062;13.752;2022-09-29T08:48:19;7.90;;;5.53;;
815;SDS011;25928;51.062;13.752;2022-09-29T08:50:54;7.43;;;6.10;;
815;SDS011;25928;51.062;13.752;2022-09-29T08:53:28;7.90;;;5.97;;
815;SDS011;25928;51.062;13.752;2022-09-29T08:55:59;6.40;;;5.80;;
815;SDS011;25928;51.062;13.752;2022-09-29T08:58:28;11.57;;;6.33;;
815;SDS011;25928;51.062;13.752;2022-09-29T09:03:46;8.23;;;5.80;;
815;SDS011;25928;51.062;13.752;2022-09-29T09:06:43;7.40;;;6.10;;
815;SDS011;25928;51.062;13.752;2022-09-29T09:12:08;6.60;;;5.90;;
815;SDS011;25928;51.062;13.752;2022-09-29T09:22:56;6.80;;;6.10;;
815;SDS011;25928;51.062;13.752;2022-09-29T09:25:32;5.90;;;5.30;;
815;SDS011;25928;51.062;13.752;2022-09-29T09:28:11;6.57;;;5.40;;
815;SDS011;25928;51.062;13.752;2022-09-29T09:33:52;6.67;;;6.00;;
815;SDS011;25928;51.062;13.752;2022-09-29T09:36:23;7.47;;;5.90;;
815;SDS011;25928;51.062;13.752;2022-09-29T09:39:20;5.77;;;5.17;;
815;SDS011;25928;51.062;13.752;2022-09-29T09:41:56;6.87;;;6.17;;
815;SDS011;25928;51.062;13.752;2022-09-29T09:44:28;5.40;;;4.90;;
815;SDS011;25928;51.062;13.752;2022-09-29T09:47:03;5.40;;;4.90;;
815;SDS011;25928;51.062;13.752;2022-09-29T09:49:46;5.73;;;4.80;;
815;SDS011;25928;51.062;13.752;2022-09-29T09:52:17;5.50;;;4.60;;
815;SDS011;25928;51.062;13.752;2022-09-29T09:54:47;6.63;;;5.43;;
815;SDS011;25928;51.062;13.752;2022-09-29T10:00:37;7.50;;;5.03;;
815;SDS011;25928;51.062;13.752;2022-09-29T10:02:50;5.30;;;4.80;;
815;SDS011;25928;51.062;13.752;2022-09-29T10:05:19;5.00;;;4.50;;
815;SDS011;25928;51.062;13.752;2022-09-29T10:07:50;5.80;;;5.20;;
815;SDS011;25928;51.062;13.752;2022-09-29T10:10:25;4.47;;;4.07;;
815;SDS011;25928;51.062;13.752;2022-09-29T10:15:30;4.60;;;4.20;;
815;SDS011;25928;51.062;13.752;2022-09-29T10:18:09;5.20;;;4.70;;
815;SDS011;25928;51.062;13.752;2022-09-29T10:20:38;5.13;;;4.67;;
815;SDS011;25928;51.062;13.752;2022-09-29T10:23:18;4.37;;;3.97;;
815;SDS011;25928;51.062;13.752;2022-09-29T10:25:57;4.47;;;3.70;;
815;SDS011;25928;51.062;13.752;2022-09-29T10:31:25;4.60;;;4.10;;
815;SDS011;25928;51.062;13.752;2022-09-29T10:36:46;5.47;;;3.70;;
815;SDS011;25928;51.062;13.752;2022-09-29T10:39:28;5.07;;;4.57;;
815;SDS011;25928;51.062;13.752;2022-09-29T10:41:57;4.00;;;3.60;;
815;SDS011;25928;51.062;13.752;2022-09-29T10:44:23;4.00;;;3.50;;
815;SDS011;25928;51.062;13.752;2022-09-29T10:46:58;4.80;;;4.30;;
815;SDS011;25928;51.062;13.752;2022-09-29T10:49:25;4.53;;;3.40;;
815;SDS011;25928;51.062;13.752;2022-09-29T10:52:03;3.47;;;3.07;;
815;SDS011;25928;51.062;13.752;2022-09-29T10:54:34;3.70;;;3.37;;
815;SDS011;25928;51.062;13.752;2022-09-29T10:57:11;4.63;;;3.33;;
815;SDS011;25928;51.062;13.752;2022-09-29T10:59:46;4.50;;;3.60;;
815;SDS011;25928;51.062;13.752;2022-09-29T11:02:16;3.40;;;2.90;;
815;SDS011;25928;51.062;13.752;2022-09-29T11:04:52;3.10;;;2.90;;
815;SDS011;25928;51.062;13.752;2022-09-29T11:07:20;3.43;;;3.13;;
815;SDS011;25928;51.062;13.752;2022-09-29T11:09:46;2.80;;;2.60;;
815;SDS011;25928;51.062;13.752;2022-09-29T11:14:58;3.40;;;3.10;;
815;SDS011;25928;51.062;13.752;2022-09-29T11:17:29;3.70;;;3.30;;
815;SDS011;25928;51.062;13.752;2022-09-29T11:20:02;3.30;;;3.07;;
815;SDS011;25928;51.062;13.752;2022-09-29T11:25:29;4.23;;;2.10;;
815;SDS011;25928;51.062;13.752;2022-09-29T11:30:49;3.00;;;2.80;;
815;SDS011;25928;51.062;13.752;2022-09-29T11:33:40;3.23;;;2.47;;
815;SDS011;25928;51.062;13.752;2022-09-29T11:36:22;3.63;;;2.83;;
815;SDS011;25928;51.062;13.752;2022-09-29T11:57:57;1.83;;;1.70;;
815;SDS011;25928;51.062;13.752;2022-09-29T12:08:48;1.60;;;1.50;;
815;SDS011;25928;51.062;13.752;2022-09-29T12:16:35;2.00;;;1.90;;
815;SDS011;25928;51.062;13.752;2022-09-29T12:19:15;1.53;;;1.43;;
815;SDS011;25928;51.062;13.752;2022-09-29T12:21:48;3.10;;;1.70;;
815;SDS011;25928;51.062;13.752;2022-09-29T12:27:25;3.10;;;1.60;;
815;SDS011;25928;51.062;13.752;2022-09-29T12:29:57;2.30;;;1.90;;
815;SDS011;25928;51.062;13.752;2022-09-29T12:32:37;3.63;;;1.90;;
815;SDS011;25928;51.062;13.752;2022-09-29T12:35:16;1.93;;;1.73;;
815;SDS011;25928;51.062;13.752;2022-09-29T12:37:48;2.47;;;1.90;;
815;SDS011;25928;51.062;13.752;2022-09-29T12:40:27;3.03;;;1.57;;
815;SDS011;25928;51.062;13.752;2022-09-29T12:43:18;2.10;;;1.57;;
815;SDS011;25928;51.062;13.752;2022-09-29T12:45:59;1.97;;;1.50;;
815;SDS011;25928;51.062;13.752;2022-09-29T12:51:12;2.87;;;1.67;;
815;SDS011;25928;51.062;13.752;2022-09-29T12:53:49;2.40;;;1.70;;
815;SDS011;25928;51.062;13.752;2022-09-29T12:56:25;1.77;;;1.67;;
815;SDS011;25928;51.062;13.752;2022-09-29T12:59:12;2.43;;;1.80;;
815;SDS011;25928;51.062;13.752;2022-09-29T13:01:59;2.10;;;1.87;;
815;SDS011;25928;51.062;13.752;2022-09-29T13:18:58;1.97;;;1.70;;
815;SDS011;25928;51.062;13.752;2022-09-29T13:24:28;2.90;;;2.00;;
815;SDS011;25928;51.062;13.752;2022-09-29T13:27:18;1.93;;;1.67;;
815;SDS011;25928;51.062;13.752;2022-09-29T13:35:22;2.80;;;2.07;;
815;SDS011;25928;51.062;13.752;2022-09-29T13:40:22;4.00;;;1.90;;
815;SDS011;25928;51.062;13.752;2022-09-29T13:42:50;2.30;;;1.80;;
815;SDS011;25928;51.062;13.752;2022-09-29T13:47:48;2.30;;;1.80;;
815;SDS011;25928;51.062;13.752;2022-09-29T13:58:36;2.60;;;2.37;;
815;SDS011;25928;51.062;13.752;2022-09-29T14:07:01;2.20;;;2.00;;
815;SDS011;25928;51.062;13.752;2022-09-29T14:09:29;3.10;;;2.10;;
815;SDS011;25928;51.062;13.752;2022-09-29T14:12:01;3.60;;;1.87;;
815;SDS011;25928;51.062;13.752;2022-09-29T14:14:32;3.03;;;1.90;;
815;SDS011;25928;51.062;13.752;2022-09-29T14:20:06;2.20;;;2.00;;
815;SDS011;25928;51.062;13.752;2022-09-29T14:33:01;3.73;;;2.60;;
815;SDS011;25928;51.062;13.752;2022-09-29T14:35:38;5.87;;;3.77;;
815;SDS011;25928;51.062;13.752;2022-09-29T14:38:23;2.80;;;2.60;;
815;SDS011;25928;51.062;13.752;2022-09-29T14:46:13;5.10;;;2.30;;
815;SDS011;25928;51.062;13.752;2022-09-29T14:52:15;3.00;;;2.30;;
815;SDS011;25928;51.062;13.752;2022-09-29T15:02:44;4.10;;;3.57;;
815;SDS011;25928;51.062;13.752;2022-09-29T15:05:33;4.13;;;3.83;;
815;SDS011;25928;51.062;13.752;2022-09-29T15:07:59;4.07;;;3.13;;
815;SDS011;25928;51.062;13.752;2022-09-29T15:10:26;3.00;;;2.37;;
815;SDS011;25928;51.062;13.752;2022-09-29T15:13:14;2.40;;;2.20;;
815;SDS011;25928;51.062;13.752;2022-09-29T15:16:03;3.83;;;1.87;;
815;SDS011;25928;51.062;13.752;2022-09-29T15:19:00;3.00;;;2.20;;
815;SDS011;25928;51.062;13.752;2022-09-29T15:21:54;3.93;;;2.60;;
815;SDS011;25928;51.062;13.752;2022-09-29T15:24:45;3.80;;;2.90;;
815;SDS011;25928;51.062;13.752;2022-09-29T15:27:22;6.30;;;4.63;;
815;SDS011;25928;51.062;13.752;2022-09-29T15:29:51;8.13;;;6.03;;
815;SDS011;25928;51.062;13.752;2022-09-29T15:32:25;3.73;;;2.83;;
815;SDS011;25928;51.062;13.752;2022-09-29T15:34:53;2.63;;;2.43;;
815;SDS011;25928;51.062;13.752;2022-09-29T15:37:26;3.40;;;2.30;;
815;SDS011;25928;51.062;13.752;2022-09-29T15:40:22;3.83;;;3.17;;
815;SDS011;25928;51.062;13.752;2022-09-29T15:42:50;3.80;;;2.63;;
815;SDS011;25928;51.062;13.752;2022-09-29T15:45:25;4.83;;;3.53;;
815;SDS011;25928;51.062;13.752;2022-09-29T15:48:05;4.27;;;3.90;;
815;SDS011;25928;51.062;13.752;2022-09-29T15:50:32;4.23;;;3.60;;
815;SDS011;25928;51.062;13.752;2022-09-29T15:53:05;4.60;;;3.83;;
815;SDS011;25928;51.062;13.752;2022-09-29T15:55:33;5.13;;;4.63;;
815;SDS011;25928;51.062;13.752;2022-09-29T15:57:58;4.10;;;3.70;;
815;SDS011;25928;51.062;13.752;2022-09-29T16:05:53;7.17;;;3.90;;
815;SDS011;25928;51.062;13.752;2022-09-29T16:08:24;4.63;;;3.40;;
815;SDS011;25928;51.062;13.752;2022-09-29T16:10:56;4.83;;;3.80;;
815;SDS011;25928;51.062;13.752;2022-09-29T16:13:25;5.40;;;3.70;;
815;SDS011;25928;51.062;13.752;2022-09-29T16:15:55;6.30;;;3.30;;
815;SDS011;25928;51.062;13.752;2022-09-29T16:18:25;6.23;;;4.30;;
815;SDS011;25928;51.062;13.752;2022-09-29T16:21:04;3.73;;;3.20;;
815;SDS011;25928;51.062;13.752;2022-09-29T16:23:36;4.20;;;3.53;;
815;SDS011;25928;51.062;13.752;2022-09-29T16:28:38;6.20;;;3.97;;
815;SDS011;25928;51.062;13.752;2022-09-29T16:31:22;4.70;;;3.80;;
815;SDS011;25928;51.062;13.752;2022-09-29T16:33:52;5.30;;;4.80;;
815;SDS011;25928;51.062;13.752;2022-09-29T16:36:20;6.57;;;5.10;;
815;SDS011;25928;51.062;13.752;2022-09-29T16:38:52;5.07;;;4.37;;
815;SDS011;25928;51.062;13.752;2022-09-29T16:49:33;7.00;;;5.50;;
815;SDS011;25928;51.062;13.752;2022-09-29T16:52:23;8.07;;;5.57;;
815;SDS011;25928;51.062;13.752;2022-09-29T16:54:48;7.57;;;5.80;;
815;SDS011;25928;51.062;13.752;2022-09-29T16:57:23;10.50;;;6.17;;
815;SDS011;25928;51.062;13.752;2022-09-29T16:59:56;9.53;;;6.30;;
815;SDS011;25928;51.062;13.752;2022-09-29T17:02:24;6.20;;;5.23;;
815;SDS011;25928;51.062;13.752;2022-09-29T17:04:52;6.97;;;6.00;;
815;SDS011;25928;51.062;13.752;2022-09-29T17:07:19;6.57;;;5.00;;
815;SDS011;25928;51.062;13.752;2022-09-29T17:09:51;5.63;;;5.10;;
815;SDS011;25928;51.062;13.752;2022-09-29T17:12:24;5.67;;;5.10;;
815;SDS011;25928;51.062;13.752;2022-09-29T17:14:52;7.10;;;5.30;;
815;SDS011;25928;51.062;13.752;2022-09-29T17:17:22;7.03;;;6.33;;
815;SDS011;25928;51.062;13.752;2022-09-29T17:19:50;7.90;;;5.80;;
815;SDS011;25928;51.062;13.752;2022-09-29T17:22:24;8.37;;;6.07;;
815;SDS011;25928;51.062;13.752;2022-09-29T17:24:51;8.13;;;5.90;;
815;SDS011;25928;51.062;13.752;2022-09-29T17:27:17;6.47;;;5.73;;
815;SDS011;25928;51.062;13.752;2022-09-29T17:30:02;7.70;;;5.87;;
815;SDS011;25928;51.062;13.752;2022-09-29T17:32:28;6.47;;;5.50;;
815;SDS011;25928;51.062;13.752;2022-09-29T17:34:53;7.43;;;6.73;;
815;SDS011;25928;51.062;13.752;2022-09-29T17:37:19;7.33;;;5.90;;
815;SDS011;25928;51.062;13.752;2022-09-29T17:39:45;11.27;;;7.20;;
815;SDS011;25928;51.062;13.752;2022-09-29T17:42:10;7.03;;;5.97;;
815;SDS011;25928;51.062;13.752;2022-09-29T17:44:37;7.30;;;6.60;;
815;SDS011;25928;51.062;13.752;2022-09-29T17:47:07;8.13;;;7.27;;
815;SDS011;25928;51.062;13.752;2022-09-29T17:49:40;8.70;;;6.33;;
815;SDS011;25928;51.062;13.752;2022-09-29T17:52:09;6.57;;;5.87;;
815;SDS011;25928;51.062;13.752;2022-09-29T17:54:39;8.70;;;6.53;;
815;SDS011;25928;51.062;13.752;2022-09-29T17:57:05;9.30;;;6.70;;
815;SDS011;25928;51.062;13.752;2022-09-29T17:59:31;12.00;;;7.10;;
815;SDS011;25928;51.062;13.752;2022-09-29T18:02:07;8.53;;;6.60;;
815;SDS011;25928;51.062;13.752;2022-09-29T18:04:36;9.13;;;7.60;;
815;SDS011;25928;51.062;13.752;2022-09-29T18:07:05;10.03;;;7.47;;
815;SDS011;25928;51.062;13.752;2022-09-29T18:09:32;7.87;;;7.07;;
815;SDS011;25928;51.062;13.752;2022-09-29T18:11:58;8.70;;;7.60;;
815;SDS011;25928;51.062;13.752;2022-09-29T18:14:23;9.07;;;7.37;;
815;SDS011;25928;51.062;13.752;2022-09-29T18:16:49;13.20;;;10.30;;
815;SDS011;25928;51.062;13.752;2022-09-29T18:19:15;14.40;;;10.30;;
815;SDS011;25928;51.062;13.752;2022-09-29T18:21:41;9.70;;;8.63;;
815;SDS011;25928;51.062;13.752;2022-09-29T18:24:07;9.53;;;7.43;;
815;SDS011;25928;51.062;13.752;2022-09-29T18:26:34;9.20;;;7.53;;
815;SDS011;25928;51.062;13.752;2022-09-29T18:29:00;9.30;;;8.30;;
815;SDS011;25928;51.062;13.752;2022-09-29T18:31:37;9.13;;;7.40;;
815;SDS011;25928;51.062;13.752;2022-09-29T18:34:02;11.77;;;8.83;;